sensor_id;sensor_type;location;lat;lon;timestamp;temperature;humidity
20698;DHT22;10508;50.956;4.640;2022-09-09T00:04:41;15.20;99.90
20698;DHT22;10508;50.956;4.640;2022-09-09T00:07:29;15.20;99.90
20698;DHT22;10508;50.956;4.640;2022-09-09T00:10:16;15.20;99.90
20698;DHT22;10508;50.956;4.640;2022-09-09T00:16:19;15.10;99.90
20698;DHT22;10508;50.956;4.640;2022-09-09T00:18:40;15.10;99.90
20698;DHT22;10508;50.956;4.640;2022-09-09T00:21:12;15.20;99.90
20698;DHT22;10508;50.956;4.640;2022-09-09T00:23:47;15.20;99.90
20698;DHT22;10508;50.956;4.640;2022-09-09T00:26:22;15.20;99.90
20698;DHT22;10508;50.956;4.640;2022-09-09T00:31:34;15.20;99.90
20698;DHT22;10508;50.956;4.640;2022-09-09T00:34:12;15.20;99.90
20698;DHT22;10508;50.956;4.640;2022-09-09T00:36:40;15.20;99.90
20698;DHT22;10508;50.956;4.640;2022-09-09T00:39:11;15.10;99.90
20698;DHT22;10508;50.956;4.640;2022-09-09T00:44:27;15.10;99.90
20698;DHT22;10508;50.956;4.640;2022-09-09T00:47:19;15.20;99.90
20698;DHT22;10508;50.956;4.640;2022-09-09T00:50:02;15.20;99.90
20698;DHT22;10508;50.956;4.640;2022-09-09T00:55:19;15.30;99.90
20698;DHT22;10508;50.956;4.640;2022-09-09T00:57:48;15.30;99.90
20698;DHT22;10508;50.956;4.640;2022-09-09T01:07:53;15.40;99.90
20698;DHT22;10508;50.956;4.640;2022-09-09T01:10:44;15.30;99.90
20698;DHT22;10508;50.956;4.640;2022-09-09T01:13:22;15.30;99.90
20698;DHT22;10508;50.956;4.640;2022-09-09T01:15:49;15.30;99.90
20698;DHT22;10508;50.956;4.640;2022-09-09T01:18:21;15.40;99.90
20698;DHT22;10508;50.956;4.640;2022-09-09T01:26:32;15.40;99.90
20698;DHT22;10508;50.956;4.640;2022-09-09T01:29:00;15.40;99.90
20698;DHT22;10508;50.956;4.640;2022-09-09T01:31:30;15.50;99.90
20698;DHT22;10508;50.956;4.640;2022-09-09T01:33:57;15.50;99.90
20698;DHT22;10508;50.956;4.640;2022-09-09T01:36:24;15.40;99.90
20698;DHT22;10508;50.956;4.640;2022-09-09T01:38:51;15.50;99.90
20698;DHT22;10508;50.956;4.640;2022-09-09T01:41:17;15.50;99.90
20698;DHT22;10508;50.956;4.640;2022-09-09T01:43:43;15.40;99.90
20698;DHT22;10508;50.956;4.640;2022-09-09T01:46:09;15.40;99.90
20698;DHT22;10508;50.956;4.640;2022-09-09T01:48:36;15.40;99.90
20698;DHT22;10508;50.956;4.640;2022-09-09T01:51:02;15.30;99.90
20698;DHT22;10508;50.956;4.640;2022-09-09T01:59:07;15.30;99.90
20698;DHT22;10508;50.956;4.640;2022-09-09T02:06:58;15.30;99.90
20698;DHT22;10508;50.956;4.640;2022-09-09T02:09:26;15.40;99.90
20698;DHT22;10508;50.956;4.640;2022-09-09T02:12:08;15.30;99.90
20698;DHT22;10508;50.956;4.640;2022-09-09T02:14:41;15.30;99.90
20698;DHT22;10508;50.956;4.640;2022-09-09T02:17:10;15.20;99.90
20698;DHT22;10508;50.956;4.640;2022-09-09T02:19:41;15.20;99.90
20698;DHT22;10508;50.956;4.640;2022-09-09T02:22:07;15.30;99.90
20698;DHT22;10508;50.956;4.640;2022-09-09T02:24:36;15.30;99.90
20698;DHT22;10508;50.956;4.640;2022-09-09T02:27:04;15.20;99.90
20698;DHT22;10508;50.956;4.640;2022-09-09T02:29:41;15.20;99.90
20698;DHT22;10508;50.956;4.640;2022-09-09T02:32:11;15.10;99.90
20698;DHT22;10508;50.956;4.640;2022-09-09T02:34:44;15.20;99.90
20698;DHT22;10508;50.956;4.640;2022-09-09T02:37:11;15.20;99.90
20698;DHT22;10508;50.956;4.640;2022-09-09T02:39:37;15.20;99.90
20698;DHT22;10508;50.956;4.640;2022-09-09T02:42:04;15.10;99.90
20698;DHT22;10508;50.956;4.640;2022-09-09T02:44:30;15.10;99.90
20698;DHT22;10508;50.956;4.640;2022-09-09T02:50:25;15.10;99.90
20698;DHT22;10508;50.956;4.640;2022-09-09T02:53:14;15.10;99.90
20698;DHT22;10508;50.956;4.640;2022-09-09T02:55:47;15.10;99.90
20698;DHT22;10508;50.956;4.640;2022-09-09T02:58:16;15.10;99.90
20698;DHT22;10508;50.956;4.640;2022-09-09T03:00:47;15.10;99.90
20698;DHT22;10508;50.956;4.640;2022-09-09T03:03:14;15.10;99.90
20698;DHT22;10508;50.956;4.640;2022-09-09T03:05:42;15.10;99.90
20698;DHT22;10508;50.956;4.640;2022-09-09T03:08:08;15.10;99.90
20698;DHT22;10508;50.956;4.640;2022-09-09T03:10:34;15.20;99.90
20698;DHT22;10508;50.956;4.640;2022-09-09T03:13:01;15.20;99.90
20698;DHT22;10508;50.956;4.640;2022-09-09T03:15:26;15.20;99.90
20698;DHT22;10508;50.956;4.640;2022-09-09T03:17:57;15.20;99.90
20698;DHT22;10508;50.956;4.640;2022-09-09T03:20:24;15.20;99.90
20698;DHT22;10508;50.956;4.640;2022-09-09T03:22:54;15.20;99.90
20698;DHT22;10508;50.956;4.640;2022-09-09T03:25:21;15.10;99.90
20698;DHT22;10508;50.956;4.640;2022-09-09T03:27:49;15.10;99.90
20698;DHT22;10508;50.956;4.640;2022-09-09T03:30:15;15.10;99.90
20698;DHT22;10508;50.956;4.640;2022-09-09T03:32:41;15.10;99.90
20698;DHT22;10508;50.956;4.640;2022-09-09T03:35:07;15.20;99.90
20698;DHT22;10508;50.956;4.640;2022-09-09T03:37:33;15.20;99.90
20698;DHT22;10508;50.956;4.640;2022-09-09T03:39:58;15.20;99.90
20698;DHT22;10508;50.956;4.640;2022-09-09T03:42:25;15.20;99.90
20698;DHT22;10508;50.956;4.640;2022-09-09T03:44:51;15.10;99.90
20698;DHT22;10508;50.956;4.640;2022-09-09T03:47:20;15.10;99.90
20698;DHT22;10508;50.956;4.640;2022-09-09T03:49:47;15.20;99.90
20698;DHT22;10508;50.956;4.640;2022-09-09T03:52:13;15.20;99.90
20698;DHT22;10508;50.956;4.640;2022-09-09T03:54:39;15.20;99.90
20698;DHT22;10508;50.956;4.640;2022-09-09T03:57:06;15.20;99.90
20698;DHT22;10508;50.956;4.640;2022-09-09T03:59:32;15.20;99.90
20698;DHT22;10508;50.956;4.640;2022-09-09T04:01:58;15.20;99.90
20698;DHT22;10508;50.956;4.640;2022-09-09T04:04:24;15.30;99.90
20698;DHT22;10508;50.956;4.640;2022-09-09T04:06:51;15.20;99.90
20698;DHT22;10508;50.956;4.640;2022-09-09T04:09:17;15.20;99.90
20698;DHT22;10508;50.956;4.640;2022-09-09T04:11:43;15.20;99.90
20698;DHT22;10508;50.956;4.640;2022-09-09T04:14:08;15.20;99.90
20698;DHT22;10508;50.956;4.640;2022-09-09T04:16:34;15.20;99.90
20698;DHT22;10508;50.956;4.640;2022-09-09T04:19:02;15.20;99.90
20698;DHT22;10508;50.956;4.640;2022-09-09T04:21:30;15.20;99.90
20698;DHT22;10508;50.956;4.640;2022-09-09T04:23:55;15.10;99.90
20698;DHT22;10508;50.956;4.640;2022-09-09T04:26:21;15.10;99.90
20698;DHT22;10508;50.956;4.640;2022-09-09T04:28:46;15.10;99.90
20698;DHT22;10508;50.956;4.640;2022-09-09T04:31:20;15.10;99.90
20698;DHT22;10508;50.956;4.640;2022-09-09T04:33:48;15.10;99.90
20698;DHT22;10508;50.956;4.640;2022-09-09T04:36:15;15.10;99.90
20698;DHT22;10508;50.956;4.640;2022-09-09T04:38:41;15.10;99.90
20698;DHT22;10508;50.956;4.640;2022-09-09T04:41:07;15.20;99.90
20698;DHT22;10508;50.956;4.640;2022-09-09T04:43:33;15.20;99.90
20698;DHT22;10508;50.956;4.640;2022-09-09T04:45:58;15.20;99.90
20698;DHT22;10508;50.956;4.640;2022-09-09T04:48:24;15.20;99.90
20698;DHT22;10508;50.956;4.640;2022-09-09T04:50:58;15.20;99.90
20698;DHT22;10508;50.956;4.640;2022-09-09T04:53:24;15.10;99.90
20698;DHT22;10508;50.956;4.640;2022-09-09T04:55:52;15.10;99.90
20698;DHT22;10508;50.956;4.640;2022-09-09T04:58:17;15.10;99.90
20698;DHT22;10508;50.956;4.640;2022-09-09T05:00:43;15.10;99.90
20698;DHT22;10508;50.956;4.640;2022-09-09T05:03:09;15.10;99.90
20698;DHT22;10508;50.956;4.640;2022-09-09T05:05:35;15.10;99.90
20698;DHT22;10508;50.956;4.640;2022-09-09T05:08:02;15.10;99.90
20698;DHT22;10508;50.956;4.640;2022-09-09T05:10:28;15.10;99.90
20698;DHT22;10508;50.956;4.640;2022-09-09T05:12:54;15.10;99.90
20698;DHT22;10508;50.956;4.640;2022-09-09T05:15:20;15.10;99.90
20698;DHT22;10508;50.956;4.640;2022-09-09T05:17:46;15.10;99.90
20698;DHT22;10508;50.956;4.640;2022-09-09T05:20:12;15.10;99.90
20698;DHT22;10508;50.956;4.640;2022-09-09T05:22:37;15.10;99.90
20698;DHT22;10508;50.956;4.640;2022-09-09T05:25:04;15.10;99.90
20698;DHT22;10508;50.956;4.640;2022-09-09T05:27:29;15.20;99.90
20698;DHT22;10508;50.956;4.640;2022-09-09T05:29:57;15.10;99.90
20698;DHT22;10508;50.956;4.640;2022-09-09T05:32:23;15.20;99.90
20698;DHT22;10508;50.956;4.640;2022-09-09T05:34:49;15.20;99.90
20698;DHT22;10508;50.956;4.640;2022-09-09T05:37:15;15.20;99.90
20698;DHT22;10508;50.956;4.640;2022-09-09T05:39:42;15.30;99.90
20698;DHT22;10508;50.956;4.640;2022-09-09T05:42:07;15.30;99.90
20698;DHT22;10508;50.956;4.640;2022-09-09T05:44:33;15.30;99.90
20698;DHT22;10508;50.956;4.640;2022-09-09T05:46:59;15.40;99.90
20698;DHT22;10508;50.956;4.640;2022-09-09T05:49:24;15.50;99.90
20698;DHT22;10508;50.956;4.640;2022-09-09T05:51:50;15.50;99.90
20698;DHT22;10508;50.956;4.640;2022-09-09T05:54:16;15.60;99.90
20698;DHT22;10508;50.956;4.640;2022-09-09T05:56:42;15.70;99.90
20698;DHT22;10508;50.956;4.640;2022-09-09T05:59:08;15.70;99.90
20698;DHT22;10508;50.956;4.640;2022-09-09T06:01:36;15.80;99.90
20698;DHT22;10508;50.956;4.640;2022-09-09T06:04:03;15.80;99.90
20698;DHT22;10508;50.956;4.640;2022-09-09T06:06:34;15.80;99.90
20698;DHT22;10508;50.956;4.640;2022-09-09T06:09:03;15.90;99.90
20698;DHT22;10508;50.956;4.640;2022-09-09T06:11:32;15.90;99.90
20698;DHT22;10508;50.956;4.640;2022-09-09T06:13:58;15.80;99.90
20698;DHT22;10508;50.956;4.640;2022-09-09T06:16:25;15.80;99.90
20698;DHT22;10508;50.956;4.640;2022-09-09T06:18:53;15.80;99.90
20698;DHT22;10508;50.956;4.640;2022-09-09T06:21:27;15.80;99.90
20698;DHT22;10508;50.956;4.640;2022-09-09T06:23:54;15.80;99.90
20698;DHT22;10508;50.956;4.640;2022-09-09T06:26:22;15.80;99.90
20698;DHT22;10508;50.956;4.640;2022-09-09T06:28:50;15.90;99.90
20698;DHT22;10508;50.956;4.640;2022-09-09T06:31:17;15.90;99.90
20698;DHT22;10508;50.956;4.640;2022-09-09T06:33:47;16.00;99.90
20698;DHT22;10508;50.956;4.640;2022-09-09T06:36:26;16.00;99.90
20698;DHT22;10508;50.956;4.640;2022-09-09T06:38:53;16.00;99.90
20698;DHT22;10508;50.956;4.640;2022-09-09T06:41:20;16.10;99.90
20698;DHT22;10508;50.956;4.640;2022-09-09T06:43:46;16.00;99.90
20698;DHT22;10508;50.956;4.640;2022-09-09T06:46:20;16.10;99.90
20698;DHT22;10508;50.956;4.640;2022-09-09T06:48:47;16.10;99.90
20698;DHT22;10508;50.956;4.640;2022-09-09T06:51:17;16.20;99.90
20698;DHT22;10508;50.956;4.640;2022-09-09T06:53:45;16.30;99.90
20698;DHT22;10508;50.956;4.640;2022-09-09T06:58:40;16.50;99.90
20698;DHT22;10508;50.956;4.640;2022-09-09T07:01:15;16.50;99.90
20698;DHT22;10508;50.956;4.640;2022-09-09T07:03:44;16.40;99.90
20698;DHT22;10508;50.956;4.640;2022-09-09T07:06:14;16.40;99.90
20698;DHT22;10508;50.956;4.640;2022-09-09T07:08:42;16.40;99.90
20698;DHT22;10508;50.956;4.640;2022-09-09T07:11:09;16.30;99.90
20698;DHT22;10508;50.956;4.640;2022-09-09T07:13:35;16.30;99.90
20698;DHT22;10508;50.956;4.640;2022-09-09T07:16:09;16.40;99.90
20698;DHT22;10508;50.956;4.640;2022-09-09T07:18:35;16.40;99.90
20698;DHT22;10508;50.956;4.640;2022-09-09T07:21:02;16.30;99.90
20698;DHT22;10508;50.956;4.640;2022-09-09T07:23:29;16.30;99.90
20698;DHT22;10508;50.956;4.640;2022-09-09T07:25:56;16.30;99.90
20698;DHT22;10508;50.956;4.640;2022-09-09T07:28:22;16.40;99.90
20698;DHT22;10508;50.956;4.640;2022-09-09T07:30:59;16.40;99.90
20698;DHT22;10508;50.956;4.640;2022-09-09T07:33:27;16.40;99.90
20698;DHT22;10508;50.956;4.640;2022-09-09T07:36:03;16.50;99.90
20698;DHT22;10508;50.956;4.640;2022-09-09T07:38:29;16.50;99.90
20698;DHT22;10508;50.956;4.640;2022-09-09T07:41:09;16.60;99.90
20698;DHT22;10508;50.956;4.640;2022-09-09T07:43:38;16.50;99.90
20698;DHT22;10508;50.956;4.640;2022-09-09T07:46:05;16.60;99.90
20698;DHT22;10508;50.956;4.640;2022-09-09T07:48:31;16.50;99.90
20698;DHT22;10508;50.956;4.640;2022-09-09T07:51:08;16.60;99.90
20698;DHT22;10508;50.956;4.640;2022-09-09T07:56:12;16.70;99.90
20698;DHT22;10508;50.956;4.640;2022-09-09T07:58:38;16.70;99.90
20698;DHT22;10508;50.956;4.640;2022-09-09T08:01:13;16.70;99.90
20698;DHT22;10508;50.956;4.640;2022-09-09T08:03:39;16.70;99.90
20698;DHT22;10508;50.956;4.640;2022-09-09T08:06:07;16.70;99.90
20698;DHT22;10508;50.956;4.640;2022-09-09T08:08:34;16.80;99.90
20698;DHT22;10508;50.956;4.640;2022-09-09T08:11:21;16.80;99.90
20698;DHT22;10508;50.956;4.640;2022-09-09T08:13:49;16.80;99.90
20698;DHT22;10508;50.956;4.640;2022-09-09T08:16:20;16.70;99.90
20698;DHT22;10508;50.956;4.640;2022-09-09T08:18:50;16.70;99.90
20698;DHT22;10508;50.956;4.640;2022-09-09T08:21:25;16.70;99.90
20698;DHT22;10508;50.956;4.640;2022-09-09T08:23:53;16.70;99.90
20698;DHT22;10508;50.956;4.640;2022-09-09T08:26:22;16.80;99.90
20698;DHT22;10508;50.956;4.640;2022-09-09T08:28:50;16.90;99.90
20698;DHT22;10508;50.956;4.640;2022-09-09T08:31:34;17.00;99.90
20698;DHT22;10508;50.956;4.640;2022-09-09T08:34:01;17.20;99.90
20698;DHT22;10508;50.956;4.640;2022-09-09T08:36:31;17.40;99.90
20698;DHT22;10508;50.956;4.640;2022-09-09T08:38:59;17.60;99.90
20698;DHT22;10508;50.956;4.640;2022-09-09T08:44:39;17.50;99.90
20698;DHT22;10508;50.956;4.640;2022-09-09T08:52:28;17.60;99.90
20698;DHT22;10508;50.956;4.640;2022-09-09T08:55:03;17.50;99.90
20698;DHT22;10508;50.956;4.640;2022-09-09T08:57:31;17.50;99.90
20698;DHT22;10508;50.956;4.640;2022-09-09T08:59:58;17.40;99.90
20698;DHT22;10508;50.956;4.640;2022-09-09T09:02:54;17.50;99.90
20698;DHT22;10508;50.956;4.640;2022-09-09T09:05:35;17.50;99.90
20698;DHT22;10508;50.956;4.640;2022-09-09T09:08:25;17.40;99.90
20698;DHT22;10508;50.956;4.640;2022-09-09T09:10:54;17.40;99.90
20698;DHT22;10508;50.956;4.640;2022-09-09T09:16:27;17.20;99.90
20698;DHT22;10508;50.956;4.640;2022-09-09T09:18:54;17.20;99.90
20698;DHT22;10508;50.956;4.640;2022-09-09T09:21:39;17.10;99.90
20698;DHT22;10508;50.956;4.640;2022-09-09T09:24:14;17.30;99.90
20698;DHT22;10508;50.956;4.640;2022-09-09T09:26:43;17.30;99.90
20698;DHT22;10508;50.956;4.640;2022-09-09T09:29:12;17.40;99.90
20698;DHT22;10508;50.956;4.640;2022-09-09T09:31:38;17.30;99.90
20698;DHT22;10508;50.956;4.640;2022-09-09T09:34:04;17.30;99.90
20698;DHT22;10508;50.956;4.640;2022-09-09T09:36:44;17.20;99.90
20698;DHT22;10508;50.956;4.640;2022-09-09T09:39:25;17.20;99.90
20698;DHT22;10508;50.956;4.640;2022-09-09T09:41:51;17.20;99.90
20698;DHT22;10508;50.956;4.640;2022-09-09T09:44:29;17.10;99.90
20698;DHT22;10508;50.956;4.640;2022-09-09T09:47:14;17.00;99.90
20698;DHT22;10508;50.956;4.640;2022-09-09T09:49:55;17.10;99.90
20698;DHT22;10508;50.956;4.640;2022-09-09T09:52:26;17.10;99.90
20698;DHT22;10508;50.956;4.640;2022-09-09T09:54:54;17.10;99.90
20698;DHT22;10508;50.956;4.640;2022-09-09T09:57:29;17.10;99.90
20698;DHT22;10508;50.956;4.640;2022-09-09T10:00:13;17.10;99.90
20698;DHT22;10508;50.956;4.640;2022-09-09T10:02:41;17.10;99.90
20698;DHT22;10508;50.956;4.640;2022-09-09T10:07:44;17.00;99.90
20698;DHT22;10508;50.956;4.640;2022-09-09T10:10:23;17.00;99.90
20698;DHT22;10508;50.956;4.640;2022-09-09T10:13:20;17.00;99.90
20698;DHT22;10508;50.956;4.640;2022-09-09T10:16:12;17.00;99.90
20698;DHT22;10508;50.956;4.640;2022-09-09T10:19:01;17.00;99.90
20698;DHT22;10508;50.956;4.640;2022-09-09T10:26:55;17.00;99.90
20698;DHT22;10508;50.956;4.640;2022-09-09T10:29:51;17.00;99.90
20698;DHT22;10508;50.956;4.640;2022-09-09T10:32:41;17.10;99.90
20698;DHT22;10508;50.956;4.640;2022-09-09T10:42:46;17.30;99.90
20698;DHT22;10508;50.956;4.640;2022-09-09T10:45:45;17.40;99.90
20698;DHT22;10508;50.956;4.640;2022-09-09T10:48:20;17.60;99.90
20698;DHT22;10508;50.956;4.640;2022-09-09T10:56:28;18.20;99.90
20698;DHT22;10508;50.956;4.640;2022-09-09T10:59:02;18.50;99.90
20698;DHT22;10508;50.956;4.640;2022-09-09T11:01:41;18.70;99.90
20698;DHT22;10508;50.956;4.640;2022-09-09T11:04:32;18.80;99.90
20698;DHT22;10508;50.956;4.640;2022-09-09T11:07:02;18.90;99.90
20698;DHT22;10508;50.956;4.640;2022-09-09T11:09:38;19.00;99.90
20698;DHT22;10508;50.956;4.640;2022-09-09T11:12:05;19.10;99.90
20698;DHT22;10508;50.956;4.640;2022-09-09T11:14:43;18.90;99.90
20698;DHT22;10508;50.956;4.640;2022-09-09T11:17:20;18.90;99.90
20698;DHT22;10508;50.956;4.640;2022-09-09T11:19:47;18.90;99.90
20698;DHT22;10508;50.956;4.640;2022-09-09T11:24:48;18.90;99.90
20698;DHT22;10508;50.956;4.640;2022-09-09T11:27:20;18.70;99.90
20698;DHT22;10508;50.956;4.640;2022-09-09T11:35:30;19.00;99.90
20698;DHT22;10508;50.956;4.640;2022-09-09T11:41:34;19.10;99.90
20698;DHT22;10508;50.956;4.640;2022-09-09T11:44:24;19.20;99.90
20698;DHT22;10508;50.956;4.640;2022-09-09T11:46:51;19.20;99.90
20698;DHT22;10508;50.956;4.640;2022-09-09T11:49:29;19.30;99.90
20698;DHT22;10508;50.956;4.640;2022-09-09T11:51:56;19.40;99.90
20698;DHT22;10508;50.956;4.640;2022-09-09T11:54:32;19.40;99.90
20698;DHT22;10508;50.956;4.640;2022-09-09T11:56:58;19.40;99.90
20698;DHT22;10508;50.956;4.640;2022-09-09T11:59:27;19.30;99.90
20698;DHT22;10508;50.956;4.640;2022-09-09T12:02:13;19.30;99.90
20698;DHT22;10508;50.956;4.640;2022-09-09T12:05:07;19.40;99.90
20698;DHT22;10508;50.956;4.640;2022-09-09T12:12:36;19.50;99.90
20698;DHT22;10508;50.956;4.640;2022-09-09T12:17:48;19.60;99.90
20698;DHT22;10508;50.956;4.640;2022-09-09T12:25:26;19.80;99.90
20698;DHT22;10508;50.956;4.640;2022-09-09T12:30:52;19.80;99.90
20698;DHT22;10508;50.956;4.640;2022-09-09T12:33:21;19.70;99.90
20698;DHT22;10508;50.956;4.640;2022-09-09T12:35:57;19.70;99.90
20698;DHT22;10508;50.956;4.640;2022-09-09T12:38:36;19.80;99.90
20698;DHT22;10508;50.956;4.640;2022-09-09T12:41:02;19.80;99.90
20698;DHT22;10508;50.956;4.640;2022-09-09T12:43:28;19.60;99.90
20698;DHT22;10508;50.956;4.640;2022-09-09T12:46:00;19.50;99.90
20698;DHT22;10508;50.956;4.640;2022-09-09T12:48:35;19.40;99.90
20698;DHT22;10508;50.956;4.640;2022-09-09T12:51:02;19.40;99.90
20698;DHT22;10508;50.956;4.640;2022-09-09T12:53:37;19.50;99.90
20698;DHT22;10508;50.956;4.640;2022-09-09T12:56:08;19.50;99.90
20698;DHT22;10508;50.956;4.640;2022-09-09T12:58:45;19.90;99.90
20698;DHT22;10508;50.956;4.640;2022-09-09T13:01:21;20.20;99.90
20698;DHT22;10508;50.956;4.640;2022-09-09T13:03:47;20.30;99.90
20698;DHT22;10508;50.956;4.640;2022-09-09T13:06:25;20.50;99.90
20698;DHT22;10508;50.956;4.640;2022-09-09T13:08:52;20.40;99.90
20698;DHT22;10508;50.956;4.640;2022-09-09T13:11:42;20.20;99.90
20698;DHT22;10508;50.956;4.640;2022-09-09T13:14:19;20.20;99.90
20698;DHT22;10508;50.956;4.640;2022-09-09T13:16:58;20.20;99.90
20698;DHT22;10508;50.956;4.640;2022-09-09T13:19:25;20.20;99.90
20698;DHT22;10508;50.956;4.640;2022-09-09T13:21:53;20.10;99.90
20698;DHT22;10508;50.956;4.640;2022-09-09T13:24:33;20.30;99.90
20698;DHT22;10508;50.956;4.640;2022-09-09T13:27:02;20.50;99.90
20698;DHT22;10508;50.956;4.640;2022-09-09T13:29:28;20.70;99.90
20698;DHT22;10508;50.956;4.640;2022-09-09T13:31:54;21.00;99.90
20698;DHT22;10508;50.956;4.640;2022-09-09T13:34:33;21.00;99.90
20698;DHT22;10508;50.956;4.640;2022-09-09T13:37:06;21.00;99.90
20698;DHT22;10508;50.956;4.640;2022-09-09T13:39:51;21.10;99.90
20698;DHT22;10508;50.956;4.640;2022-09-09T13:42:27;21.10;99.90
20698;DHT22;10508;50.956;4.640;2022-09-09T13:44:53;21.00;99.90
20698;DHT22;10508;50.956;4.640;2022-09-09T13:47:30;21.00;99.90
20698;DHT22;10508;50.956;4.640;2022-09-09T13:49:56;21.00;99.90
20698;DHT22;10508;50.956;4.640;2022-09-09T13:52:22;21.00;99.90
20698;DHT22;10508;50.956;4.640;2022-09-09T13:54:49;20.90;99.90
20698;DHT22;10508;50.956;4.640;2022-09-09T13:57:19;20.90;99.90
20698;DHT22;10508;50.956;4.640;2022-09-09T13:59:46;20.90;99.90
20698;DHT22;10508;50.956;4.640;2022-09-09T14:02:12;20.90;99.90
20698;DHT22;10508;50.956;4.640;2022-09-09T14:04:38;20.90;99.90
20698;DHT22;10508;50.956;4.640;2022-09-09T14:07:12;21.30;99.90
20698;DHT22;10508;50.956;4.640;2022-09-09T14:09:39;21.00;99.90
20698;DHT22;10508;50.956;4.640;2022-09-09T14:12:08;21.20;99.90
20698;DHT22;10508;50.956;4.640;2022-09-09T14:14:34;21.30;99.90
20698;DHT22;10508;50.956;4.640;2022-09-09T14:17:00;21.30;99.90
20698;DHT22;10508;50.956;4.640;2022-09-09T14:19:25;21.20;99.90
20698;DHT22;10508;50.956;4.640;2022-09-09T14:21:51;21.10;99.90
20698;DHT22;10508;50.956;4.640;2022-09-09T14:24:17;21.00;99.90
20698;DHT22;10508;50.956;4.640;2022-09-09T14:26:42;20.90;99.90
20698;DHT22;10508;50.956;4.640;2022-09-09T14:29:08;21.00;99.90
20698;DHT22;10508;50.956;4.640;2022-09-09T14:31:34;21.10;99.90
20698;DHT22;10508;50.956;4.640;2022-09-09T14:33:59;21.40;99.90
20698;DHT22;10508;50.956;4.640;2022-09-09T14:36:25;21.30;99.90
20698;DHT22;10508;50.956;4.640;2022-09-09T14:38:51;21.30;99.90
20698;DHT22;10508;50.956;4.640;2022-09-09T14:41:18;21.30;99.90
20698;DHT22;10508;50.956;4.640;2022-09-09T14:43:45;21.20;99.90
20698;DHT22;10508;50.956;4.640;2022-09-09T14:46:16;21.20;99.90
20698;DHT22;10508;50.956;4.640;2022-09-09T14:48:42;21.00;99.90
20698;DHT22;10508;50.956;4.640;2022-09-09T14:53:42;21.10;99.90
20698;DHT22;10508;50.956;4.640;2022-09-09T14:56:10;21.20;99.90
20698;DHT22;10508;50.956;4.640;2022-09-09T14:58:36;21.20;99.90
20698;DHT22;10508;50.956;4.640;2022-09-09T15:01:11;21.30;99.90
20698;DHT22;10508;50.956;4.640;2022-09-09T15:03:38;21.30;99.90
20698;DHT22;10508;50.956;4.640;2022-09-09T15:06:13;21.30;99.90
20698;DHT22;10508;50.956;4.640;2022-09-09T15:08:41;21.40;99.90
20698;DHT22;10508;50.956;4.640;2022-09-09T15:11:06;21.30;99.90
20698;DHT22;10508;50.956;4.640;2022-09-09T15:13:33;21.20;99.90
20698;DHT22;10508;50.956;4.640;2022-09-09T15:16:11;21.20;99.90
20698;DHT22;10508;50.956;4.640;2022-09-09T15:18:37;21.20;99.90
20698;DHT22;10508;50.956;4.640;2022-09-09T15:23:37;20.80;99.90
20698;DHT22;10508;50.956;4.640;2022-09-09T15:26:04;20.90;99.90
20698;DHT22;10508;50.956;4.640;2022-09-09T15:28:35;21.10;99.90
20698;DHT22;10508;50.956;4.640;2022-09-09T15:33:37;21.60;99.90
20698;DHT22;10508;50.956;4.640;2022-09-09T15:36:36;21.80;99.90
20698;DHT22;10508;50.956;4.640;2022-09-09T15:39:05;21.80;99.90
20698;DHT22;10508;50.956;4.640;2022-09-09T15:41:31;21.80;99.60
20698;DHT22;10508;50.956;4.640;2022-09-09T15:43:57;21.90;99.90
20698;DHT22;10508;50.956;4.640;2022-09-09T15:46:26;21.90;99.70
20698;DHT22;10508;50.956;4.640;2022-09-09T15:48:57;21.70;99.90
20698;DHT22;10508;50.956;4.640;2022-09-09T15:51:24;21.50;99.90
20698;DHT22;10508;50.956;4.640;2022-09-09T15:53:55;21.40;99.90
20698;DHT22;10508;50.956;4.640;2022-09-09T15:56:21;21.30;99.90
20698;DHT22;10508;50.956;4.640;2022-09-09T15:58:47;21.00;99.90
20698;DHT22;10508;50.956;4.640;2022-09-09T16:01:13;21.00;99.90
20698;DHT22;10508;50.956;4.640;2022-09-09T16:03:40;20.80;99.90
20698;DHT22;10508;50.956;4.640;2022-09-09T16:06:19;20.80;99.90
20698;DHT22;10508;50.956;4.640;2022-09-09T16:08:47;20.80;99.90
20698;DHT22;10508;50.956;4.640;2022-09-09T16:11:16;20.80;99.90
20698;DHT22;10508;50.956;4.640;2022-09-09T16:13:43;20.70;99.90
20698;DHT22;10508;50.956;4.640;2022-09-09T16:16:13;20.80;99.90
20698;DHT22;10508;50.956;4.640;2022-09-09T16:18:45;20.60;99.90
20698;DHT22;10508;50.956;4.640;2022-09-09T16:21:24;20.60;99.90
20698;DHT22;10508;50.956;4.640;2022-09-09T16:23:51;20.60;99.90
20698;DHT22;10508;50.956;4.640;2022-09-09T16:26:17;20.70;99.90
20698;DHT22;10508;50.956;4.640;2022-09-09T16:28:46;20.70;99.90
20698;DHT22;10508;50.956;4.640;2022-09-09T16:31:31;20.60;99.90
20698;DHT22;10508;50.956;4.640;2022-09-09T16:34:00;20.60;99.90
20698;DHT22;10508;50.956;4.640;2022-09-09T16:36:28;20.60;99.90
20698;DHT22;10508;50.956;4.640;2022-09-09T16:38:57;20.50;99.90
20698;DHT22;10508;50.956;4.640;2022-09-09T16:41:24;20.50;99.90
20698;DHT22;10508;50.956;4.640;2022-09-09T16:43:57;20.40;99.90
20698;DHT22;10508;50.956;4.640;2022-09-09T16:46:24;20.40;99.90
20698;DHT22;10508;50.956;4.640;2022-09-09T16:48:51;20.30;99.90
20698;DHT22;10508;50.956;4.640;2022-09-09T16:51:23;20.30;99.90
20698;DHT22;10508;50.956;4.640;2022-09-09T16:53:50;20.20;99.90
20698;DHT22;10508;50.956;4.640;2022-09-09T16:56:21;20.20;99.90
20698;DHT22;10508;50.956;4.640;2022-09-09T16:59:08;20.20;99.90
20698;DHT22;10508;50.956;4.640;2022-09-09T17:01:37;20.20;99.90
20698;DHT22;10508;50.956;4.640;2022-09-09T17:04:05;20.20;99.90
20698;DHT22;10508;50.956;4.640;2022-09-09T17:06:32;20.10;99.90
20698;DHT22;10508;50.956;4.640;2022-09-09T17:09:02;20.10;99.90
20698;DHT22;10508;50.956;4.640;2022-09-09T17:11:29;20.10;99.90
20698;DHT22;10508;50.956;4.640;2022-09-09T17:13:56;20.10;99.90
20698;DHT22;10508;50.956;4.640;2022-09-09T17:16:24;20.10;99.90
20698;DHT22;10508;50.956;4.640;2022-09-09T17:18:57;20.20;99.90
20698;DHT22;10508;50.956;4.640;2022-09-09T17:21:25;20.10;99.90
20698;DHT22;10508;50.956;4.640;2022-09-09T17:23:52;20.20;99.90
20698;DHT22;10508;50.956;4.640;2022-09-09T17:26:19;20.30;99.90
20698;DHT22;10508;50.956;4.640;2022-09-09T17:28:47;20.30;99.90
20698;DHT22;10508;50.956;4.640;2022-09-09T17:31:14;20.20;99.90
20698;DHT22;10508;50.956;4.640;2022-09-09T17:33:42;20.20;99.90
20698;DHT22;10508;50.956;4.640;2022-09-09T17:36:11;20.30;99.90
20698;DHT22;10508;50.956;4.640;2022-09-09T17:38:38;20.20;99.90
20698;DHT22;10508;50.956;4.640;2022-09-09T17:41:30;20.00;99.90
20698;DHT22;10508;50.956;4.640;2022-09-09T17:43:54;19.80;99.90
20698;DHT22;10508;50.956;4.640;2022-09-09T17:46:22;19.70;99.90